Time;durP1;ratioP1;P1;durP2;ratioP2;P2;SDS_P1;SDS_P2;PMS_P1;PMS_P2;Temp;Humidity;BMP_temperature;BMP_pressure;BME280_temperature;BME280_humidity;BME280_pressure;Samples;Min_cycle;Max_cycle;Signal;HPM_P1;HPM_P2
2022/08/28 00:01:18;;;;;;;;;;;14.80;99.90;;;;;;4956245;28;20629;-80
2022/08/28 00:03:44;;;;;;;;;;;14.80;99.90;;;;;;4971022;28;20056;-81
2022/08/28 00:06:11;;;;;;;;;;;14.80;99.90;;;;;;4973533;28;19977;-83
2022/08/28 00:08:37;;;;;;;;;;;14.80;99.90;;;;;;4989301;28;19925;-83
2022/08/28 00:11:03;;;;;;;;;;;14.80;99.90;;;;;;4986669;28;19926;-80
2022/08/28 00:13:30;;;;;;;;;;;14.80;99.90;;;;;;4970517;28;20035;-81
2022/08/28 00:15:57;;;;;;;;;;;13.90;99.90;;;;;;4971524;28;19936;-82
2022/08/28 00:18:25;;;;;;;;;;;14.80;99.90;;;;;;4970974;28;19965;-83
2022/08/28 00:20:51;;;;;;;;;;;14.70;99.90;;;;;;4970267;28;20708;-83
2022/08/28 00:23:17;;;;;;;;;;;14.70;99.90;;;;;;4956390;28;20479;-81
2022/08/28 00:25:43;;;;;;;;;;;14.70;99.90;;;;;;4969012;28;20005;-81
2022/08/28 00:28:10;;;;;;;;;;;14.70;99.90;;;;;;4973174;28;19968;-79
2022/08/28 00:30:39;;;;;;;;;;;14.70;99.90;;;;;;4971348;28;19929;-80
2022/08/28 00:33:07;;;;;;;;;;;14.70;99.90;;;;;;4987819;28;19944;-81
2022/08/28 00:35:33;;;;;;;;;;;14.60;99.90;;;;;;4988506;28;19930;-82
2022/08/28 00:38:00;;;;;;;;;;;14.60;99.90;;;;;;4989197;28;19930;-81
2022/08/28 00:40:29;;;;;;;;;;;14.60;99.90;;;;;;4989143;28;19926;-83
2022/08/28 00:42:55;;;;;;;;;;;14.60;99.90;;;;;;4965285;28;19934;-80
2022/08/28 00:45:23;;;;;;;;;;;14.60;99.90;;;;;;4970668;28;19933;-82
2022/08/28 00:47:50;;;;;;;;;;;14.60;99.90;;;;;;4970793;28;19929;-80
2022/08/28 00:50:18;;;;;;;;;;;14.60;99.90;;;;;;4957206;28;19981;-90
2022/08/28 00:52:45;;;;;;;;;;;14.60;99.90;;;;;;4973728;28;20406;-82
2022/08/28 00:55:12;;;;;;;;;;;14.60;99.90;;;;;;4971228;28;19926;-82
2022/08/28 00:57:43;;;;;;;;;;;14.60;99.90;;;;;;4971130;28;19929;-80
2022/08/28 01:00:11;;;;;;;;;;;14.60;99.90;;;;;;4977263;28;19957;-79
2022/08/28 01:02:37;;;;;;;;;;;14.50;99.90;;;;;;4950557;28;20371;-80
2022/08/28 01:05:06;;;;;;;;;;;14.50;99.90;;;;;;4937480;28;20024;-80
2022/08/28 01:07:32;;;;;;;;;;;14.40;99.90;;;;;;4967316;28;19989;-84
2022/08/28 01:09:59;;;;;;;;;;;14.40;99.90;;;;;;4954530;28;19926;-85
2022/08/28 01:12:28;;;;;;;;;;;14.40;99.90;;;;;;4940513;28;19926;-81
2022/08/28 01:14:58;;;;;;;;;;;14.30;99.90;;;;;;4962379;28;19934;-86
2022/08/28 01:17:27;;;;;;;;;;;14.30;99.90;;;;;;4954502;28;20067;-81
2022/08/28 01:20:01;;;;;;;;;;;14.30;99.90;;;;;;4954082;28;20022;-80
2022/08/28 01:22:36;;;;;;;;;;;14.20;99.90;;;;;;4970668;28;20346;-86
2022/08/28 01:25:23;;;;;;;;;;;14.20;99.90;;;;;;4970533;28;20392;-86
2022/08/28 01:27:50;;;;;;;;;;;14.20;99.90;;;;;;4937342;28;19940;-84
2022/08/28 01:30:20;;;;;;;;;;;14.30;99.90;;;;;;4952189;28;20269;-82
2022/08/28 01:32:48;;;;;;;;;;;14.20;99.90;;;;;;4969736;28;19941;-85
2022/08/28 01:35:17;;;;;;;;;;;14.20;99.90;;;;;;4958096;28;19934;-83
2022/08/28 01:37:44;;;;;;;;;;;14.20;99.90;;;;;;4957385;28;19933;-85
2022/08/28 01:40:11;;;;;;;;;;;14.20;99.90;;;;;;4957643;28;20002;-87
2022/08/28 01:42:38;;;;;;;;;;;14.20;99.90;;;;;;4974756;28;20009;-79
2022/08/28 01:45:09;;;;;;;;;;;14.20;99.90;;;;;;4936421;28;19937;-82
2022/08/28 01:47:40;;;;;;;;;;;14.20;99.90;;;;;;4971899;28;19929;-83
2022/08/28 01:50:07;;;;;;;;;;;14.10;99.90;;;;;;4970900;28;19929;-80
2022/08/28 01:52:35;;;;;;;;;;;14.10;99.90;;;;;;4955785;28;19961;-81
2022/08/28 01:55:02;;;;;;;;;;;14.20;99.90;;;;;;4937488;28;19930;-81
2022/08/28 01:57:28;;;;;;;;;;;14.20;99.90;;;;;;4967219;28;19926;-80
2022/08/28 01:59:53;;;;;;;;;;;14.10;99.90;;;;;;4964194;28;19930;-81
2022/08/28 02:02:20;;;;;;;;;;;14.20;99.90;;;;;;4974113;28;20746;-81
2022/08/28 02:04:46;;;;;;;;;;;14.20;99.90;;;;;;4991715;28;20459;-80
2022/08/28 02:07:12;;;;;;;;;;;14.20;99.90;;;;;;4981900;23;20045;-80
2022/08/28 02:09:39;;;;;;;;;;;14.20;99.90;;;;;;4985604;28;19940;-83
2022/08/28 02:12:06;;;;;;;;;;;14.20;99.90;;;;;;4975679;28;19929;-80
2022/08/28 02:14:33;;;;;;;;;;;14.20;99.90;;;;;;4975297;28;19925;-86
2022/08/28 02:17:00;;;;;;;;;;;14.20;99.90;;;;;;4977074;28;19935;-82
2022/08/28 02:19:25;;;;;;;;;;;14.20;99.90;;;;;;4977023;28;20372;-85
2022/08/28 02:21:51;;;;;;;;;;;14.20;99.90;;;;;;4974481;28;19925;-80
2022/08/28 02:24:17;;;;;;;;;;;14.20;99.90;;;;;;4966704;28;19983;-79
2022/08/28 02:26:43;;;;;;;;;;;14.20;99.90;;;;;;4969790;28;19937;-80
2022/08/28 02:29:11;;;;;;;;;;;14.10;99.90;;;;;;4974116;28;20404;-81
2022/08/28 02:31:37;;;;;;;;;;;14.10;99.90;;;;;;4990379;28;20454;-79
2022/08/28 02:34:03;;;;;;;;;;;14.10;99.90;;;;;;4965116;28;19993;-79
2022/08/28 02:36:29;;;;;;;;;;;14.00;99.90;;;;;;4990659;28;19951;-79
2022/08/28 02:38:55;;;;;;;;;;;14.10;99.90;;;;;;4973995;28;20372;-80
2022/08/28 02:41:21;;;;;;;;;;;14.00;99.90;;;;;;4973745;28;19947;-79
2022/08/28 02:43:46;;;;;;;;;;;13.90;99.90;;;;;;4975765;28;20381;-79
2022/08/28 02:46:12;;;;;;;;;;;13.90;99.90;;;;;;4978942;28;19921;-80
2022/08/28 02:48:39;;;;;;;;;;;13.90;99.90;;;;;;4970660;28;19934;-78
2022/08/28 02:51:10;;;;;;;;;;;13.90;99.90;;;;;;4974365;28;19936;-82
2022/08/28 02:53:36;;;;;;;;;;;13.80;99.90;;;;;;4988791;28;19925;-80
2022/08/28 02:56:03;;;;;;;;;;;13.80;99.90;;;;;;4990723;28;19964;-82
2022/08/28 02:58:31;;;;;;;;;;;13.80;99.90;;;;;;4990758;28;20404;-80
2022/08/28 03:00:58;;;;;;;;;;;13.80;99.90;;;;;;5006803;28;19925;-81
2022/08/28 03:03:23;;;;;;;;;;;13.80;99.90;;;;;;4974053;28;19956;-81
2022/08/28 03:05:49;;;;;;;;;;;13.70;99.90;;;;;;4991073;28;19933;-81
2022/08/28 03:08:15;;;;;;;;;;;13.70;99.90;;;;;;4979526;28;19930;-81
2022/08/28 03:10:41;;;;;;;;;;;13.70;99.90;;;;;;4955006;28;19933;-79
2022/08/28 03:13:07;;;;;;;;;;;14.00;99.90;;;;;;4961532;28;19945;-81
2022/08/28 03:15:33;;;;;;;;;;;13.90;99.90;;;;;;4954308;28;19940;-79
2022/08/28 03:17:59;;;;;;;;;;;;;;;;;;4970231;28;19930;-81
2022/08/28 03:20:25;;;;;;;;;;;13.70;99.90;;;;;;4969388;28;19936;-86
2022/08/28 03:25:35;;;;;;;;;;;13.70;99.90;;;;;;4970698;28;19987;-80
2022/08/28 03:28:01;;;;;;;;;;;13.70;99.90;;;;;;4953524;28;19956;-80
2022/08/28 03:30:27;;;;;;;;;;;13.60;99.90;;;;;;4953267;28;20084;-80
2022/08/28 03:32:52;;;;;;;;;;;13.70;99.90;;;;;;4968246;28;19933;-79
2022/08/28 03:35:19;;;;;;;;;;;13.60;99.90;;;;;;4970275;28;20029;-81
2022/08/28 03:37:45;;;;;;;;;;;13.60;99.90;;;;;;4954527;28;20397;-85
2022/08/28 03:40:11;;;;;;;;;;;13.60;99.90;;;;;;4954052;28;19933;-82
2022/08/28 03:42:37;;;;;;;;;;;13.60;99.90;;;;;;4969133;28;20129;-80
2022/08/28 03:45:06;;;;;;;;;;;13.60;99.90;;;;;;4973768;28;19941;-85
2022/08/28 03:47:34;;;;;;;;;;;13.50;99.90;;;;;;4969855;28;20439;-85
2022/08/28 03:50:00;;;;;;;;;;;13.60;99.90;;;;;;4955068;28;20004;-84
2022/08/28 03:52:25;;;;;;;;;;;13.60;99.90;;;;;;4939316;28;20017;-82
2022/08/28 03:54:51;;;;;;;;;;;13.60;99.90;;;;;;4971256;28;19949;-86
2022/08/28 03:57:22;;;;;;;;;;;13.60;99.90;;;;;;4940005;28;20627;-85
2022/08/28 03:59:49;;;;;;;;;;;13.60;99.90;;;;;;4970805;28;19930;-86
2022/08/28 04:02:18;;;;;;;;;;;13.60;99.90;;;;;;4970854;28;19941;-86
2022/08/28 04:04:44;;;;;;;;;;;13.60;99.90;;;;;;4974933;28;20667;-84
2022/08/28 04:07:10;;;;;;;;;;;13.50;99.90;;;;;;4952852;28;20395;-87
2022/08/28 04:09:37;;;;;;;;;;;13.60;99.90;;;;;;4979814;28;19929;-89
2022/08/28 04:12:03;;;;;;;;;;;13.60;99.90;;;;;;4958909;28;19925;-84
2022/08/28 04:14:28;;;;;;;;;;;13.70;99.90;;;;;;4973701;28;20397;-81
2022/08/28 04:16:54;;;;;;;;;;;13.70;99.90;;;;;;4940637;28;19929;-80
2022/08/28 04:19:20;;;;;;;;;;;13.70;99.90;;;;;;4977217;28;20453;-80
2022/08/28 04:21:46;;;;;;;;;;;13.70;99.90;;;;;;4956944;28;19949;-84
2022/08/28 04:24:13;;;;;;;;;;;13.70;99.90;;;;;;4954108;28;19925;-83
2022/08/28 04:26:38;;;;;;;;;;;13.70;99.90;;;;;;4962267;28;19941;-83
2022/08/28 04:29:05;;;;;;;;;;;13.80;99.90;;;;;;4960579;28;20300;-80
2022/08/28 04:31:33;;;;;;;;;;;13.80;99.90;;;;;;4958742;28;19965;-80
2022/08/28 04:34:00;;;;;;;;;;;13.90;99.90;;;;;;4973566;28;20496;-83
2022/08/28 04:36:28;;;;;;;;;;;13.90;99.90;;;;;;4962354;28;19930;-84
2022/08/28 04:38:55;;;;;;;;;;;13.90;99.90;;;;;;4959099;28;19929;-84
2022/08/28 04:41:22;;;;;;;;;;;13.90;99.90;;;;;;4980496;28;19933;-87
2022/08/28 04:43:51;;;;;;;;;;;13.90;99.90;;;;;;4972070;28;20051;-83
2022/08/28 04:46:19;;;;;;;;;;;13.90;99.90;;;;;;4972354;28;19959;-92
2022/08/28 04:49:04;;;;;;;;;;;13.90;99.90;;;;;;4945117;28;20299;-81
2022/08/28 04:51:31;;;;;;;;;;;13.90;99.90;;;;;;4973429;28;20020;-83
2022/08/28 04:53:57;;;;;;;;;;;13.90;99.90;;;;;;4957503;28;19926;-80
2022/08/28 04:56:24;;;;;;;;;;;13.90;99.90;;;;;;4985263;28;19929;-79
2022/08/28 04:58:49;;;;;;;;;;;13.80;99.90;;;;;;4976672;28;19995;-85
2022/08/28 05:01:17;;;;;;;;;;;13.90;99.90;;;;;;4948572;28;19929;-81
2022/08/28 05:03:44;;;;;;;;;;;13.80;99.90;;;;;;4961874;28;19981;-81
2022/08/28 05:06:11;;;;;;;;;;;13.90;99.90;;;;;;4962226;28;19988;-82
2022/08/28 05:08:37;;;;;;;;;;;13.90;99.90;;;;;;4979224;28;20297;-82
2022/08/28 05:11:30;;;;;;;;;;;13.90;99.90;;;;;;4973207;28;19933;-79
2022/08/28 05:13:56;;;;;;;;;;;14.00;99.90;;;;;;4970570;28;19949;-80
2022/08/28 05:16:22;;;;;;;;;;;14.00;99.90;;;;;;4985557;28;20177;-83
2022/08/28 05:18:48;;;;;;;;;;;14.10;99.90;;;;;;4971802;28;20595;-80
2022/08/28 05:21:20;;;;;;;;;;;14.10;99.90;;;;;;4958423;28;19941;-83
2022/08/28 05:23:52;;;;;;;;;;;14.20;99.90;;;;;;4983396;28;20017;-79
2022/08/28 05:26:18;;;;;;;;;;;14.20;99.90;;;;;;4966163;28;19986;-81
2022/08/28 05:28:45;;;;;;;;;;;14.30;99.90;;;;;;4983801;28;19972;-80
2022/08/28 05:31:14;;;;;;;;;;;14.30;99.90;;;;;;4970764;28;19932;-80
2022/08/28 05:33:41;;;;;;;;;;;;;;;;;;4969105;28;20507;-83
2022/08/28 05:36:07;;;;;;;;;;;14.30;99.90;;;;;;4973143;28;19948;-83
2022/08/28 05:38:34;;;;;;;;;;;14.20;99.90;;;;;;4972517;28;19925;-82
2022/08/28 05:41:00;;;;;;;;;;;14.30;99.90;;;;;;4989373;28;19929;-80
2022/08/28 05:43:26;;;;;;;;;;;14.30;99.90;;;;;;4972504;28;19992;-81
2022/08/28 05:45:57;;;;;;;;;;;14.30;99.90;;;;;;4992913;28;19926;-81
2022/08/28 05:48:22;;;;;;;;;;;14.40;99.90;;;;;;4986082;28;20084;-84
2022/08/28 05:50:48;;;;;;;;;;;14.60;99.90;;;;;;4954600;28;20523;-79
2022/08/28 05:53:16;;;;;;;;;;;14.70;99.90;;;;;;4967285;28;20042;-86
2022/08/28 05:55:43;;;;;;;;;;;14.80;99.90;;;;;;4970111;28;19937;-84
2022/08/28 06:00:53;;;;;;;;;;;15.00;99.90;;;;;;4985622;28;20332;-82
2022/08/28 06:03:19;;;;;;;;;;;15.20;99.90;;;;;;4968365;28;19933;-81
2022/08/28 06:05:45;;;;;;;;;;;15.30;99.90;;;;;;4986641;28;19936;-85
2022/08/28 06:08:11;;;;;;;;;;;15.50;99.90;;;;;;4984759;28;19973;-84
2022/08/28 06:10:44;;;;;;;;;;;15.60;99.90;;;;;;4954873;28;20020;-81
2022/08/28 06:13:09;;;;;;;;;;;15.80;99.90;;;;;;4967400;28;20373;-80
2022/08/28 06:15:42;;;;;;;;;;;16.00;99.90;;;;;;4955134;28;19945;-83
2022/08/28 06:18:08;;;;;;;;;;;16.00;99.90;;;;;;4982337;28;19940;-84
2022/08/28 06:20:41;;;;;;;;;;;16.10;99.90;;;;;;4985399;28;19930;-80
2022/08/28 06:23:08;;;;;;;;;;;16.20;99.90;;;;;;4984812;28;20067;-82
2022/08/28 06:25:38;;;;;;;;;;;16.30;99.90;;;;;;4987803;28;19930;-82
2022/08/28 06:28:05;;;;;;;;;;;16.30;99.90;;;;;;4951882;28;20353;-80
2022/08/28 06:30:34;;;;;;;;;;;16.40;99.90;;;;;;4982651;28;19926;-78
2022/08/28 06:33:00;;;;;;;;;;;16.40;99.90;;;;;;4984384;28;20353;-79
2022/08/28 06:35:27;;;;;;;;;;;16.50;99.90;;;;;;4981944;28;19942;-80
2022/08/28 06:37:52;;;;;;;;;;;16.60;99.90;;;;;;4964651;28;19933;-80
2022/08/28 06:40:19;;;;;;;;;;;16.60;99.90;;;;;;4982461;28;19933;-81
2022/08/28 06:42:45;;;;;;;;;;;16.60;99.90;;;;;;4968071;28;19930;-83
2022/08/28 06:45:11;;;;;;;;;;;16.80;99.90;;;;;;4986394;28;19944;-80
2022/08/28 06:47:37;;;;;;;;;;;16.80;99.90;;;;;;4952367;28;19934;-79
2022/08/28 06:50:03;;;;;;;;;;;16.90;99.90;;;;;;4983802;28;20049;-81
2022/08/28 06:52:30;;;;;;;;;;;17.10;99.90;;;;;;4979950;28;19926;-84
2022/08/28 06:54:56;;;;;;;;;;;17.20;99.90;;;;;;4978156;28;20527;-77
2022/08/28 06:57:24;;;;;;;;;;;17.30;99.90;;;;;;4984874;28;19978;-79
2022/08/28 06:59:57;;;;;;;;;;;17.40;99.90;;;;;;4980831;28;19926;-81
2022/08/28 07:02:22;;;;;;;;;;;17.40;99.90;;;;;;4978826;28;20403;-80
2022/08/28 07:04:54;;;;;;;;;;;17.00;99.90;;;;;;4982801;28;19930;-78
2022/08/28 07:07:19;;;;;;;;;;;17.60;99.90;;;;;;4982401;28;20028;-79
2022/08/28 07:09:46;;;;;;;;;;;17.80;99.90;;;;;;4997852;28;19929;-84
2022/08/28 07:12:16;;;;;;;;;;;18.10;99.90;;;;;;4997869;28;19929;-77
2022/08/28 07:14:42;;;;;;;;;;;18.90;99.90;;;;;;4971099;28;19980;-82
2022/08/28 07:17:08;;;;;;;;;;;;;;;;;;4958809;28;20467;-79
2022/08/28 07:19:34;;;;;;;;;;;21.10;99.90;;;;;;4966022;28;19933;-81
2022/08/28 07:22:00;;;;;;;;;;;21.20;99.90;;;;;;4967062;28;19930;-79
2022/08/28 07:24:28;;;;;;;;;;;21.30;99.90;;;;;;4963029;28;20395;-83
2022/08/28 07:26:54;;;;;;;;;;;20.60;99.90;;;;;;4992739;28;20972;-83
2022/08/28 07:29:20;;;;;;;;;;;19.50;99.90;;;;;;4957986;28;19959;-83
2022/08/28 07:31:52;;;;;;;;;;;18.80;99.90;;;;;;4973542;28;19925;-80
2022/08/28 07:34:19;;;;;;;;;;;18.50;99.90;;;;;;4970297;28;19970;-81
2022/08/28 07:36:45;;;;;;;;;;;18.60;99.90;;;;;;4982979;28;20016;-81
2022/08/28 07:39:12;;;;;;;;;;;18.50;99.90;;;;;;4986553;28;20020;-80
2022/08/28 07:41:41;;;;;;;;;;;19.10;99.90;;;;;;4969709;28;19973;-78
2022/08/28 07:46:58;;;;;;;;;;;20.20;99.90;;;;;;4985915;28;20375;-78
2022/08/28 07:49:25;;;;;;;;;;;20.40;99.90;;;;;;4982296;28;19930;-77
2022/08/28 07:51:52;;;;;;;;;;;20.60;99.90;;;;;;4984898;28;19930;-81
2022/08/28 07:54:19;;;;;;;;;;;;;;;;;;4969637;28;19932;-80
2022/08/28 07:56:45;;;;;;;;;;;21.00;99.90;;;;;;4966702;28;19929;-80
2022/08/28 07:59:12;;;;;;;;;;;21.30;99.90;;;;;;4985698;28;19936;-84
2022/08/28 08:01:40;;;;;;;;;;;21.60;99.90;;;;;;4970133;28;20060;-83
2022/08/28 08:04:08;;;;;;;;;;;21.90;99.90;;;;;;4984580;28;20343;-81
2022/08/28 08:06:34;;;;;;;;;;;21.90;99.90;;;;;;5000824;28;20024;-80
2022/08/28 08:09:00;;;;;;;;;;;21.40;99.90;;;;;;4966619;28;19934;-80
2022/08/28 08:11:26;;;;;;;;;;;21.20;99.90;;;;;;4967646;28;19949;-80
2022/08/28 08:13:53;;;;;;;;;;;21.00;99.90;;;;;;4948059;28;20258;-85
2022/08/28 08:16:21;;;;;;;;;;;21.30;99.90;;;;;;4980215;28;19940;-78
2022/08/28 08:18:51;;;;;;;;;;;21.80;99.90;;;;;;4963702;28;20223;-81
2022/08/28 08:21:20;;;;;;;;;;;;;;;;;;4983317;28;19980;-82
2022/08/28 08:23:47;;;;;;;;;;;22.40;99.90;;;;;;4981451;28;19946;-78
2022/08/28 08:26:31;;;;;;;;;;;22.60;99.90;;;;;;4982660;28;19933;-77
2022/08/28 08:28:58;;;;;;;;;;;22.90;99.90;;;;;;4963634;28;19934;-77
2022/08/28 08:31:25;;;;;;;;;;;22.70;99.90;;;;;;4979750;28;20067;-78
2022/08/28 08:33:52;;;;;;;;;;;22.40;99.90;;;;;;4980932;28;19936;-77
2022/08/28 08:36:20;;;;;;;;;;;21.60;99.90;;;;;;4979855;28;19929;-80
2022/08/28 08:38:47;;;;;;;;;;;20.80;99.90;;;;;;4979807;28;19934;-79
2022/08/28 08:41:13;;;;;;;;;;;20.10;99.90;;;;;;4974059;28;19922;-79
2022/08/28 08:43:51;;;;;;;;;;;19.70;99.90;;;;;;4977399;28;20024;-79
2022/08/28 08:46:20;;;;;;;;;;;20.00;99.90;;;;;;4979231;28;19930;-78
2022/08/28 08:48:47;;;;;;;;;;;;;;;;;;4979700;28;20025;-80
2022/08/28 08:51:19;;;;;;;;;;;20.00;99.90;;;;;;4977499;28;20454;-81
2022/08/28 08:53:57;;;;;;;;;;;19.60;99.90;;;;;;4978625;28;19926;-82
2022/08/28 08:56:23;;;;;;;;;;;19.20;99.90;;;;;;4956594;28;20061;-82
2022/08/28 09:02:32;;;;;;;;;;;19.30;99.90;;;;;;4991852;28;20036;-85
2022/08/28 09:05:21;;;;;;;;;;;19.70;99.90;;;;;;4968976;28;19968;-80
2022/08/28 09:08:17;;;;;;;;;;;19.80;99.90;;;;;;4974304;28;20397;-82
2022/08/28 09:10:49;;;;;;;;;;;19.90;99.90;;;;;;4964670;28;20353;-81
2022/08/28 09:13:24;;;;;;;;;;;19.80;99.90;;;;;;4962612;28;19988;-81
2022/08/28 09:15:51;;;;;;;;;;;19.50;99.90;;;;;;4968222;28;19933;-84
2022/08/28 09:18:19;;;;;;;;;;;19.70;99.90;;;;;;4972366;28;19980;-81
2022/08/28 09:20:48;;;;;;;;;;;19.80;99.90;;;;;;4970673;28;19936;-80
2022/08/28 09:23:14;;;;;;;;;;;20.00;99.90;;;;;;4985538;28;20509;-81
2022/08/28 09:25:43;;;;;;;;;;;20.00;99.90;;;;;;4984302;28;19933;-85
2022/08/28 09:28:26;;;;;;;;;;;20.00;99.90;;;;;;4981079;28;19996;-84
2022/08/28 09:31:01;;;;;;;;;;;20.20;99.90;;;;;;4965268;28;19926;-85
2022/08/28 09:33:27;;;;;;;;;;;20.30;99.90;;;;;;4983181;28;19932;-88
2022/08/28 09:35:53;;;;;;;;;;;20.40;99.90;;;;;;4979695;28;19984;-84
2022/08/28 09:38:24;;;;;;;;;;;20.70;99.90;;;;;;4950692;28;19933;-81
2022/08/28 09:43:49;;;;;;;;;;;20.50;99.90;;;;;;5003492;28;20023;-85
2022/08/28 09:46:19;;;;;;;;;;;20.30;99.90;;;;;;4986453;28;20032;-81
2022/08/28 09:48:46;;;;;;;;;;;20.50;99.90;;;;;;4988880;28;19929;-87
2022/08/28 09:51:25;;;;;;;;;;;20.20;99.90;;;;;;4965099;28;19940;-80
2022/08/28 09:53:51;;;;;;;;;;;20.20;99.90;;;;;;4980844;28;19949;-83
2022/08/28 09:56:27;;;;;;;;;;;20.00;99.90;;;;;;4969029;28;20308;-81
2022/08/28 09:59:07;;;;;;;;;;;20.00;99.90;;;;;;4991512;28;19941;-83
2022/08/28 10:01:42;;;;;;;;;;;20.30;99.90;;;;;;4992107;28;20071;-82
2022/08/28 10:04:15;;;;;;;;;;;20.40;99.90;;;;;;4991569;28;20591;-81
2022/08/28 10:07:02;;;;;;;;;;;20.10;99.90;;;;;;4976078;28;20431;-81
2022/08/28 10:09:30;;;;;;;;;;;19.80;99.90;;;;;;4964221;28;20209;-81
2022/08/28 10:11:56;;;;;;;;;;;19.70;99.90;;;;;;4976511;28;19936;-81
2022/08/28 10:14:48;;;;;;;;;;;19.80;99.90;;;;;;4991065;28;19937;-82
2022/08/28 10:17:14;;;;;;;;;;;20.20;99.90;;;;;;4950385;28;19936;-82
2022/08/28 10:19:49;;;;;;;;;;;20.10;99.90;;;;;;4987864;28;20311;-84
2022/08/28 10:22:35;;;;;;;;;;;20.30;99.90;;;;;;4995152;28;19929;-82
2022/08/28 10:25:31;;;;;;;;;;;20.30;99.90;;;;;;4994933;28;19976;-81
2022/08/28 10:28:00;;;;;;;;;;;20.20;99.90;;;;;;4961154;28;19937;-81
2022/08/28 10:30:27;;;;;;;;;;;20.60;99.90;;;;;;4986401;28;20384;-82
2022/08/28 10:33:09;;;;;;;;;;;20.90;99.90;;;;;;4999898;28;19961;-82
2022/08/28 10:35:38;;;;;;;;;;;21.00;99.90;;;;;;4986189;28;19976;-83
2022/08/28 10:38:10;;;;;;;;;;;21.10;99.90;;;;;;4992418;28;20051;-82
2022/08/28 10:41:02;;;;;;;;;;;21.20;99.60;;;;;;4991413;28;19997;-84
2022/08/28 10:43:48;;;;;;;;;;;21.30;98.70;;;;;;5000816;28;20309;-83
2022/08/28 10:46:24;;;;;;;;;;;21.20;99.20;;;;;;4999705;28;20080;-80
2022/08/28 10:49:02;;;;;;;;;;;21.30;99.90;;;;;;4985117;28;19929;-80
2022/08/28 10:51:34;;;;;;;;;;;21.00;98.70;;;;;;4986304;28;19930;-81
2022/08/28 10:54:02;;;;;;;;;;;20.60;99.40;;;;;;4985994;28;20336;-84
2022/08/28 10:56:45;;;;;;;;;;;20.60;98.90;;;;;;4985746;28;19937;-85
2022/08/28 10:59:11;;;;;;;;;;;20.90;98.40;;;;;;4984441;28;20391;-82
2022/08/28 11:01:41;;;;;;;;;;;21.00;97.10;;;;;;4971133;28;19933;-79
2022/08/28 11:04:13;;;;;;;;;;;21.10;97.50;;;;;;4973837;28;20392;-81
2022/08/28 11:06:44;;;;;;;;;;;21.20;98.70;;;;;;4989025;28;19930;-82
2022/08/28 11:09:31;;;;;;;;;;;20.90;98.60;;;;;;4986238;28;20443;-80
2022/08/28 11:11:58;;;;;;;;;;;20.50;98.90;;;;;;4967873;28;19926;-78
2022/08/28 11:14:35;;;;;;;;;;;20.40;98.80;;;;;;4979930;28;19938;-82
2022/08/28 11:17:04;;;;;;;;;;;20.40;99.90;;;;;;4969131;28;19933;-81
2022/08/28 11:19:36;;;;;;;;;;;20.50;99.90;;;;;;4984011;28;19996;-83
2022/08/28 11:22:08;;;;;;;;;;;20.40;99.80;;;;;;4979680;28;19922;-84
2022/08/28 11:24:46;;;;;;;;;;;20.70;99.90;;;;;;4980377;28;19940;-82
2022/08/28 11:27:20;;;;;;;;;;;20.90;99.90;;;;;;4975893;28;20028;-80
2022/08/28 11:30:01;;;;;;;;;;;20.80;98.00;;;;;;4979665;28;20009;-83
2022/08/28 11:32:33;;;;;;;;;;;20.40;97.60;;;;;;4962581;28;19930;-81
2022/08/28 11:35:00;;;;;;;;;;;20.40;98.10;;;;;;4964311;28;19940;-81
2022/08/28 11:37:39;;;;;;;;;;;20.60;98.20;;;;;;4990813;28;19941;-79
2022/08/28 11:40:17;;;;;;;;;;;20.80;96.90;;;;;;4969812;28;20015;-79
2022/08/28 11:42:47;;;;;;;;;;;20.80;97.40;;;;;;4970961;28;19949;-81
2022/08/28 11:45:18;;;;;;;;;;;20.60;96.00;;;;;;4955023;28;19933;-83
2022/08/28 11:47:45;;;;;;;;;;;20.50;98.20;;;;;;4983660;28;19930;-82
2022/08/28 11:50:25;;;;;;;;;;;20.80;98.40;;;;;;4981885;28;19929;-81
2022/08/28 11:53:00;;;;;;;;;;;20.70;96.30;;;;;;4963241;28;19930;-82
2022/08/28 11:55:43;;;;;;;;;;;20.80;97.10;;;;;;4966293;28;20500;-81
2022/08/28 11:58:27;;;;;;;;;;;20.80;94.90;;;;;;4978507;28;20037;-81
2022/08/28 12:01:05;;;;;;;;;;;20.90;94.60;;;;;;4959710;28;19961;-80
2022/08/28 12:03:37;;;;;;;;;;;21.00;95.80;;;;;;5004804;28;20486;-82
2022/08/28 12:06:04;;;;;;;;;;;20.80;94.30;;;;;;4981545;28;19926;-82
2022/08/28 12:08:50;;;;;;;;;;;20.80;94.20;;;;;;4974856;28;20410;-79
2022/08/28 12:11:34;;;;;;;;;;;20.70;94.70;;;;;;4980578;28;20384;-80
2022/08/28 12:14:00;;;;;;;;;;;20.50;95.70;;;;;;4972282;28;19980;-82
2022/08/28 12:16:26;;;;;;;;;;;20.60;96.60;;;;;;4972910;28;19925;-80
2022/08/28 12:18:52;;;;;;;;;;;20.60;97.20;;;;;;4964658;28;19933;-80
2022/08/28 12:21:23;;;;;;;;;;;20.50;97.60;;;;;;4971740;28;20008;-81
2022/08/28 12:23:58;;;;;;;;;;;20.40;98.60;;;;;;4985523;28;20013;-81
2022/08/28 12:26:27;;;;;;;;;;;20.30;98.40;;;;;;4970054;28;20550;-80
2022/08/28 12:28:55;;;;;;;;;;;20.30;99.50;;;;;;4986683;28;19925;-82
2022/08/28 12:34:23;;;;;;;;;;;20.60;99.90;;;;;;4982758;28;19992;-81
2022/08/28 12:36:59;;;;;;;;;;;20.60;99.90;;;;;;4982307;28;20332;-78
2022/08/28 12:39:26;;;;;;;;;;;20.40;99.90;;;;;;4977030;28;19925;-79
2022/08/28 12:41:51;;;;;;;;;;;20.40;99.90;;;;;;4972401;28;20312;-79
2022/08/28 12:44:22;;;;;;;;;;;20.30;99.90;;;;;;4951516;28;19932;-80
2022/08/28 12:46:48;;;;;;;;;;;20.30;99.70;;;;;;4971322;28;19928;-79
2022/08/28 12:49:28;;;;;;;;;;;20.20;99.60;;;;;;4967410;28;19929;-79
2022/08/28 12:52:14;;;;;;;;;;;20.20;99.90;;;;;;4979987;28;19929;-82
2022/08/28 12:54:40;;;;;;;;;;;20.20;99.90;;;;;;4984452;28;19936;-80
2022/08/28 12:57:08;;;;;;;;;;;20.10;99.90;;;;;;4984359;28;20380;-83
2022/08/28 12:59:53;;;;;;;;;;;20.20;99.90;;;;;;4955561;28;19934;-83
2022/08/28 13:02:26;;;;;;;;;;;20.10;99.90;;;;;;4969517;28;19937;-82
2022/08/28 13:05:01;;;;;;;;;;;20.10;99.90;;;;;;4983061;28;19933;-80
2022/08/28 13:07:29;;;;;;;;;;;20.10;99.90;;;;;;4967234;28;20005;-84
2022/08/28 13:09:56;;;;;;;;;;;20.00;99.90;;;;;;4979961;28;19933;-81
2022/08/28 13:12:29;;;;;;;;;;;20.00;99.90;;;;;;4983399;28;19940;-81
2022/08/28 13:14:55;;;;;;;;;;;19.90;99.90;;;;;;4978072;28;19926;-81
2022/08/28 13:17:43;;;;;;;;;;;19.90;99.90;;;;;;4979244;28;20317;-80
2022/08/28 13:20:09;;;;;;;;;;;19.80;99.90;;;;;;4967219;28;19977;-81
2022/08/28 13:22:39;;;;;;;;;;;19.80;99.90;;;;;;4967554;28;19976;-80
2022/08/28 13:25:07;;;;;;;;;;;19.80;99.90;;;;;;4984554;28;19925;-81
2022/08/28 13:27:33;;;;;;;;;;;19.80;99.90;;;;;;4954813;28;19930;-82
2022/08/28 13:30:06;;;;;;;;;;;19.80;99.90;;;;;;4967890;28;19938;-83
2022/08/28 13:32:38;;;;;;;;;;;19.80;99.90;;;;;;4980327;28;20336;-81
2022/08/28 13:38:48;;;;;;;;;;;19.70;99.90;;;;;;4988576;28;19933;-83
2022/08/28 13:41:16;;;;;;;;;;;19.50;99.90;;;;;;4967678;28;19933;-79
2022/08/28 13:43:44;;;;;;;;;;;19.50;99.90;;;;;;4971324;28;19980;-85
2022/08/28 13:46:10;;;;;;;;;;;19.40;99.90;;;;;;4966540;28;19932;-84
2022/08/28 13:48:39;;;;;;;;;;;19.30;99.90;;;;;;4974916;28;19973;-85
2022/08/28 13:54:27;;;;;;;;;;;19.20;99.90;;;;;;5006045;28;19969;-89
2022/08/28 13:56:58;;;;;;;;;;;19.20;99.90;;;;;;4984192;28;20419;-80
2022/08/28 13:59:24;;;;;;;;;;;19.30;99.90;;;;;;4983902;28;20744;-80
2022/08/28 14:04:37;;;;;;;;;;;19.20;99.90;;;;;;4984709;28;19933;-81
2022/08/28 14:07:03;;;;;;;;;;;19.10;99.90;;;;;;4970971;28;21222;-78
2022/08/28 14:09:30;;;;;;;;;;;19.00;99.90;;;;;;4983831;28;19929;-83
2022/08/28 14:11:56;;;;;;;;;;;19.00;99.90;;;;;;4982316;28;20331;-81
2022/08/28 14:14:22;;;;;;;;;;;19.00;99.90;;;;;;4979671;28;19930;-79
2022/08/28 14:16:51;;;;;;;;;;;19.00;99.90;;;;;;4967496;28;19937;-81
2022/08/28 14:19:16;;;;;;;;;;;19.00;99.90;;;;;;4984168;28;19934;-80
2022/08/28 14:21:42;;;;;;;;;;;19.00;99.90;;;;;;4984019;28;20525;-85
2022/08/28 14:24:11;;;;;;;;;;;19.00;99.90;;;;;;4955030;28;19930;-80
2022/08/28 14:26:41;;;;;;;;;;;19.10;99.90;;;;;;4981368;28;20065;-83
2022/08/28 14:29:09;;;;;;;;;;;19.00;99.90;;;;;;4972712;28;20001;-82
2022/08/28 14:31:35;;;;;;;;;;;19.00;99.90;;;;;;4981075;28;19930;-83
2022/08/28 14:34:03;;;;;;;;;;;19.00;99.90;;;;;;4981008;28;19925;-83
2022/08/28 14:36:30;;;;;;;;;;;19.10;99.90;;;;;;4966461;28;21311;-80
2022/08/28 14:38:57;;;;;;;;;;;19.00;99.90;;;;;;4979248;28;19981;-82
2022/08/28 14:41:26;;;;;;;;;;;18.90;99.90;;;;;;4979598;28;19984;-88
2022/08/28 14:43:57;;;;;;;;;;;18.90;99.90;;;;;;4981680;28;20008;-83
2022/08/28 14:46:45;;;;;;;;;;;18.90;99.90;;;;;;4982512;28;19965;-83
2022/08/28 14:49:17;;;;;;;;;;;18.90;99.90;;;;;;4979660;28;19997;-83
2022/08/28 14:51:44;;;;;;;;;;;18.80;99.90;;;;;;4968523;28;19942;-83
2022/08/28 14:54:11;;;;;;;;;;;18.80;99.90;;;;;;4981854;28;19948;-82
2022/08/28 14:56:37;;;;;;;;;;;18.90;99.90;;;;;;4965092;28;19934;-80
2022/08/28 14:59:04;;;;;;;;;;;18.90;99.90;;;;;;4949453;28;19976;-81